createdAt,value
2022-10-31T00:01:20.638Z,99.90
2022-10-31T00:03:48.621Z,99.90
2022-10-31T00:06:19.132Z,99.90
2022-10-31T00:08:47.472Z,99.90
2022-10-31T00:11:14.352Z,99.90
2022-10-31T00:13:41.344Z,99.90
2022-10-31T00:16:15.322Z,99.90
2022-10-31T00:18:42.281Z,99.90
2022-10-31T00:21:09.228Z,99.90
2022-10-31T00:23:36.225Z,99.90
2022-10-31T00:26:05.006Z,99.90
2022-10-31T00:28:33.300Z,99.90
2022-10-31T00:31:05.344Z,99.90
2022-10-31T00:33:35.131Z,99.90
2022-10-31T00:36:02.167Z,99.90
2022-10-31T00:38:29.179Z,99.90
2022-10-31T00:40:56.202Z,99.90
2022-10-31T00:43:23.124Z,99.90
2022-10-31T00:45:50.038Z,99.90
2022-10-31T00:48:17.111Z,99.90
2022-10-31T00:50:44.059Z,99.90
2022-10-31T00:53:10.986Z,99.90
2022-10-31T00:55:37.870Z,99.90
2022-10-31T00:58:05.085Z,99.90
2022-10-31T01:00:32.281Z,99.90
2022-10-31T01:02:59.514Z,99.90
2022-10-31T01:05:26.735Z,99.90
2022-10-31T01:07:53.604Z,99.90
2022-10-31T01:10:20.465Z,99.90
2022-10-31T01:12:49.155Z,99.90
2022-10-31T01:15:21.105Z,99.90
2022-10-31T01:17:48.711Z,99.90
2022-10-31T01:20:16.655Z,99.90
2022-10-31T01:22:43.708Z,99.90
2022-10-31T01:25:13.504Z,99.90
2022-10-31T01:27:40.454Z,99.90
2022-10-31T01:30:08.125Z,99.90
2022-10-31T01:32:35.198Z,99.90
2022-10-31T01:35:02.170Z,99.90
2022-10-31T01:37:29.045Z,99.90
2022-10-31T01:39:55.906Z,99.90
2022-10-31T01:42:24.358Z,99.90
2022-10-31T01:44:53.828Z,99.90
2022-10-31T01:47:27.844Z,99.90
2022-10-31T01:49:58.758Z,99.90
2022-10-31T01:52:37.700Z,99.90
2022-10-31T01:55:12.688Z,99.90
2022-10-31T01:57:43.185Z,99.90
2022-10-31T02:00:11.625Z,99.90
2022-10-31T02:02:39.137Z,99.90
2022-10-31T02:05:10.327Z,99.90
2022-10-31T02:08:12.134Z,99.90
2022-10-31T02:10:39.286Z,99.90
2022-10-31T02:13:08.376Z,99.90
2022-10-31T02:15:37.379Z,99.90
2022-10-31T02:18:05.626Z,99.90
2022-10-31T02:20:49.270Z,99.90
2022-10-31T02:23:54.315Z,99.90
2022-10-31T02:27:07.452Z,99.90
2022-10-31T02:30:15.460Z,99.90
2022-10-31T02:33:13.115Z,99.90
2022-10-31T02:36:05.783Z,99.90
2022-10-31T02:39:34.766Z,99.90
2022-10-31T02:42:36.582Z,99.90
2022-10-31T02:45:33.197Z,99.90
2022-10-31T02:48:04.545Z,99.90
2022-10-31T02:50:35.199Z,99.90
2022-10-31T02:53:03.187Z,99.90
2022-10-31T02:55:50.253Z,99.90
2022-10-31T02:58:22.385Z,99.90
2022-10-31T03:01:26.409Z,99.90
2022-10-31T03:04:48.993Z,99.90
2022-10-31T03:07:54.264Z,99.90
2022-10-31T03:10:37.490Z,99.90
2022-10-31T03:13:25.715Z,99.90
2022-10-31T03:16:13.046Z,99.90
2022-10-31T03:18:51.586Z,99.90
2022-10-31T03:21:28.445Z,99.90
2022-10-31T03:23:57.800Z,99.90
2022-10-31T03:26:26.619Z,99.90
2022-10-31T03:29:02.859Z,99.90
2022-10-31T03:31:42.027Z,99.90
2022-10-31T03:34:11.114Z,99.90
2022-10-31T03:36:46.015Z,99.90
2022-10-31T03:39:15.710Z,99.90
2022-10-31T03:41:52.654Z,99.90
2022-10-31T03:44:22.664Z,99.90
2022-10-31T03:46:52.148Z,99.90
2022-10-31T03:49:19.114Z,99.90
2022-10-31T03:51:59.144Z,99.90
2022-10-31T03:54:55.370Z,99.90
2022-10-31T03:57:37.462Z,99.90
2022-10-31T04:00:14.141Z,99.90
2022-10-31T04:02:46.677Z,99.90
2022-10-31T04:05:18.435Z,99.90
2022-10-31T04:07:48.637Z,99.90
2022-10-31T04:10:17.647Z,99.90
2022-10-31T04:12:48.570Z,99.90
2022-10-31T04:15:15.776Z,99.90
2022-10-31T04:17:46.316Z,99.90
2022-10-31T04:20:17.550Z,99.90
2022-10-31T04:22:47.548Z,99.90
2022-10-31T04:25:14.513Z,99.90
2022-10-31T04:27:41.414Z,99.90
2022-10-31T04:30:09.147Z,99.90
2022-10-31T04:32:36.035Z,99.90
2022-10-31T04:35:03.050Z,99.90
2022-10-31T04:37:32.766Z,99.90
2022-10-31T04:39:59.602Z,99.90
2022-10-31T04:42:26.481Z,99.90
2022-10-31T04:44:57.497Z,99.90
2022-10-31T04:47:24.525Z,99.90
2022-10-31T04:49:51.354Z,99.90
2022-10-31T04:52:20.027Z,99.90
2022-10-31T04:54:51.156Z,99.90
2022-10-31T04:57:18.008Z,99.90
2022-10-31T04:59:50.646Z,99.90
2022-10-31T05:02:17.622Z,99.90
2022-10-31T05:04:44.496Z,99.90
2022-10-31T05:07:11.428Z,99.90
2022-10-31T05:09:38.589Z,99.90
2022-10-31T05:12:10.871Z,99.90
2022-10-31T05:14:37.688Z,99.90
2022-10-31T05:17:04.564Z,99.90
2022-10-31T05:19:31.495Z,99.90
2022-10-31T05:22:01.298Z,99.90
2022-10-31T05:24:28.235Z,99.90
2022-10-31T05:26:57.982Z,99.90
2022-10-31T05:29:24.923Z,99.90
2022-10-31T05:31:51.820Z,99.90
2022-10-31T05:34:18.867Z,99.90
2022-10-31T05:36:45.927Z,99.90
2022-10-31T05:39:14.498Z,99.90
2022-10-31T05:41:41.442Z,99.90
2022-10-31T05:44:08.380Z,99.90
2022-10-31T05:46:35.377Z,99.90
2022-10-31T05:49:02.974Z,99.90
2022-10-31T05:51:30.601Z,99.90
2022-10-31T05:53:57.448Z,99.90
2022-10-31T05:56:24.320Z,99.90
2022-10-31T05:58:51.223Z,99.90
2022-10-31T06:01:19.436Z,99.90
2022-10-31T06:03:46.532Z,99.90
2022-10-31T06:06:14.477Z,99.90
2022-10-31T06:08:41.673Z,99.90
2022-10-31T06:11:08.535Z,99.90
2022-10-31T06:13:35.472Z,99.90
2022-10-31T06:16:02.512Z,99.90
2022-10-31T06:18:29.329Z,99.90
2022-10-31T06:20:56.298Z,99.90
2022-10-31T06:23:23.139Z,99.90
2022-10-31T06:25:51.425Z,99.90
2022-10-31T06:28:18.685Z,99.90
2022-10-31T06:30:46.351Z,99.90
2022-10-31T06:33:13.240Z,99.90
2022-10-31T06:35:45.515Z,99.90
2022-10-31T06:38:12.496Z,99.90
2022-10-31T06:40:39.460Z,99.90
2022-10-31T06:43:06.394Z,99.90
2022-10-31T06:45:33.331Z,99.90
2022-10-31T06:48:17.550Z,99.90
2022-10-31T06:50:45.058Z,99.90
2022-10-31T06:53:12.376Z,99.90
2022-10-31T06:55:39.498Z,99.90
2022-10-31T06:58:06.721Z,99.90
2022-10-31T07:00:37.438Z,99.90
2022-10-31T07:03:07.192Z,99.90
2022-10-31T07:05:34.333Z,99.90
2022-10-31T07:08:04.139Z,99.90
2022-10-31T07:10:37.247Z,99.90
2022-10-31T07:13:10.746Z,99.90
2022-10-31T07:15:39.236Z,99.90
2022-10-31T07:18:08.435Z,99.90
2022-10-31T07:20:35.984Z,99.90
2022-10-31T07:23:03.474Z,99.90
2022-10-31T07:25:30.751Z,99.90
2022-10-31T07:27:57.842Z,99.90
2022-10-31T07:30:25.020Z,99.90
2022-10-31T07:32:52.394Z,99.90
2022-10-31T07:35:21.980Z,99.90
2022-10-31T07:37:49.777Z,99.90
2022-10-31T07:40:24.648Z,99.90
2022-10-31T07:42:55.289Z,99.90
2022-10-31T07:45:22.567Z,99.90
2022-10-31T07:47:53.809Z,99.90
2022-10-31T07:50:31.419Z,99.80
2022-10-31T07:53:07.071Z,97.50
2022-10-31T07:55:34.539Z,98.20
2022-10-31T07:58:08.551Z,98.30
2022-10-31T08:00:36.841Z,98.00
2022-10-31T08:03:05.171Z,96.20
2022-10-31T08:05:33.020Z,97.40
2022-10-31T08:08:00.186Z,99.10
2022-10-31T08:10:28.196Z,99.90
2022-10-31T08:13:04.220Z,99.90
2022-10-31T08:15:31.535Z,99.90
2022-10-31T08:17:59.297Z,99.90
2022-10-31T08:20:26.428Z,99.90
2022-10-31T08:23:12.638Z,99.90
2022-10-31T08:25:39.887Z,99.90
2022-10-31T08:28:07.899Z,99.90
2022-10-31T08:30:36.586Z,99.90
2022-10-31T08:33:06.429Z,99.90
2022-10-31T08:35:34.551Z,99.90
2022-10-31T08:38:02.684Z,99.90
2022-10-31T08:40:31.328Z,99.90
2022-10-31T08:43:03.350Z,99.90
2022-10-31T08:45:32.843Z,99.90
2022-10-31T08:48:05.227Z,99.90
2022-10-31T08:50:34.292Z,98.00
2022-10-31T08:53:09.161Z,98.00
2022-10-31T08:55:37.443Z,97.40
2022-10-31T08:58:10.486Z,98.30
2022-10-31T09:00:37.722Z,97.00
2022-10-31T09:03:14.129Z,96.50
2022-10-31T09:05:41.321Z,96.10
2022-10-31T09:08:14.779Z,92.90
2022-10-31T09:10:43.370Z,92.90
2022-10-31T09:13:18.618Z,91.70
2022-10-31T09:15:49.354Z,92.40
2022-10-31T09:18:19.251Z,91.10
2022-10-31T09:20:48.024Z,92.20
2022-10-31T09:23:20.434Z,91.70
2022-10-31T09:25:51.268Z,90.80
2022-10-31T09:28:21.005Z,87.10
2022-10-31T09:30:49.730Z,87.50
2022-10-31T09:33:16.603Z,89.20
2022-10-31T09:35:43.918Z,80.80
2022-10-31T09:38:13.175Z,79.40
2022-10-31T09:40:42.450Z,72.20
2022-10-31T09:44:06.541Z,75.20
2022-10-31T09:47:19.026Z,75.90
2022-10-31T09:50:27.324Z,73.80
2022-10-31T09:53:16.429Z,69.70
2022-10-31T09:56:36.503Z,69.50
2022-10-31T09:59:06.038Z,74.40
2022-10-31T10:01:57.506Z,70.40
2022-10-31T10:04:43.712Z,62.70
2022-10-31T10:07:42.790Z,60.20
2022-10-31T10:10:33.858Z,59.60
2022-10-31T10:13:40.374Z,60.00
2022-10-31T10:16:59.858Z,61.10
2022-10-31T10:19:41.403Z,62.50
2022-10-31T10:22:52.913Z,66.80
2022-10-31T10:25:34.693Z,66.10
2022-10-31T10:28:28.356Z,71.50
2022-10-31T10:31:11.432Z,73.80
2022-10-31T10:34:27.368Z,73.80
2022-10-31T10:37:11.022Z,71.90
2022-10-31T10:39:42.207Z,71.10
2022-10-31T10:42:32.716Z,70.80
2022-10-31T10:45:18.844Z,72.10
2022-10-31T10:47:56.203Z,76.00
2022-10-31T10:50:34.899Z,75.00
2022-10-31T10:54:04.171Z,74.50
2022-10-31T10:57:14.272Z,76.10
2022-10-31T10:59:41.312Z,76.90
2022-10-31T11:02:24.239Z,74.20
2022-10-31T11:04:56.672Z,74.20
2022-10-31T11:07:23.667Z,69.80
2022-10-31T11:09:50.729Z,68.80
2022-10-31T11:12:22.918Z,65.80
2022-10-31T11:15:01.201Z,64.30
2022-10-31T11:17:39.010Z,60.30
2022-10-31T11:20:26.864Z,58.60
2022-10-31T11:23:04.047Z,58.60
2022-10-31T11:25:30.969Z,56.00
2022-10-31T11:28:10.739Z,63.50
2022-10-31T11:30:55.635Z,57.00
2022-10-31T11:33:35.264Z,56.70
2022-10-31T11:36:35.058Z,55.00
2022-10-31T11:39:04.428Z,52.10
2022-10-31T11:41:34.763Z,46.90
2022-10-31T11:44:15.965Z,45.80
2022-10-31T11:46:57.096Z,43.30
2022-10-31T11:49:35.813Z,48.80
2022-10-31T11:52:07.590Z,50.30
2022-10-31T11:54:54.321Z,53.20
2022-10-31T11:57:33.207Z,53.20
2022-10-31T12:00:02.207Z,51.30
2022-10-31T12:02:29.174Z,48.90
2022-10-31T12:05:23.474Z,45.00
2022-10-31T12:07:50.835Z,47.10
2022-10-31T12:10:20.443Z,47.40
2022-10-31T12:13:18.827Z,45.20
2022-10-31T12:15:55.370Z,45.90
2022-10-31T12:19:06.529Z,45.90
2022-10-31T12:22:03.432Z,47.80
2022-10-31T12:25:11.920Z,50.20
2022-10-31T12:28:16.108Z,52.10
2022-10-31T12:30:51.514Z,54.10
2022-10-31T12:34:02.671Z,54.40
2022-10-31T12:37:04.143Z,55.00
2022-10-31T12:40:21.977Z,52.80
2022-10-31T12:43:25.840Z,53.30
2022-10-31T12:45:59.092Z,53.70
2022-10-31T12:49:06.532Z,53.70
2022-10-31T12:52:02.120Z,55.70
2022-10-31T12:55:10.437Z,54.80
2022-10-31T12:57:59.740Z,58.40
2022-10-31T13:00:30.495Z,59.00
2022-10-31T13:06:20.319Z,54.20
2022-10-31T13:09:02.677Z,54.20
2022-10-31T13:11:34.918Z,54.10
2022-10-31T13:14:27.829Z,54.10
2022-10-31T13:16:56.811Z,56.40
2022-10-31T13:19:28.713Z,55.80
2022-10-31T13:22:22.399Z,54.70
2022-10-31T13:25:03.076Z,56.50
2022-10-31T13:27:41.996Z,55.90
2022-10-31T13:30:19.278Z,54.70
2022-10-31T13:33:00.863Z,54.10
2022-10-31T13:35:44.665Z,52.50
2022-10-31T13:38:53.062Z,52.60
2022-10-31T13:41:22.640Z,54.10
2022-10-31T13:44:02.579Z,55.70
2022-10-31T13:46:40.598Z,56.00
2022-10-31T13:49:44.244Z,57.00
2022-10-31T13:52:22.920Z,56.80
2022-10-31T13:54:57.245Z,56.30
2022-10-31T13:57:42.718Z,50.40
2022-10-31T14:00:26.786Z,51.00
2022-10-31T14:02:57.579Z,52.30
2022-10-31T14:05:43.200Z,50.90
2022-10-31T14:08:21.846Z,51.80
2022-10-31T14:10:52.020Z,53.10
2022-10-31T14:13:38.433Z,54.80
2022-10-31T14:16:25.739Z,55.70
2022-10-31T14:19:03.461Z,54.30
2022-10-31T14:21:40.057Z,56.30
2022-10-31T14:24:45.413Z,56.00
2022-10-31T14:27:46.550Z,57.40
2022-10-31T14:30:19.044Z,60.00
2022-10-31T14:32:51.582Z,60.30
2022-10-31T14:35:21.332Z,60.70
2022-10-31T14:38:33.197Z,60.00
2022-10-31T14:41:16.726Z,60.70
2022-10-31T14:43:53.424Z,61.20
2022-10-31T14:46:58.353Z,60.60
2022-10-31T14:50:03.833Z,60.80
2022-10-31T14:52:31.234Z,60.80
2022-10-31T14:55:00.349Z,59.40
2022-10-31T14:57:34.084Z,59.10
2022-10-31T15:00:06.513Z,59.10
2022-10-31T15:03:19.826Z,58.40
2022-10-31T15:05:55.391Z,58.60
2022-10-31T15:09:07.510Z,59.00
2022-10-31T15:11:39.331Z,60.10
2022-10-31T15:14:31.211Z,63.10
2022-10-31T15:16:59.653Z,64.50
2022-10-31T15:19:29.709Z,66.80
2022-10-31T15:21:58.529Z,68.40
2022-10-31T15:24:44.531Z,69.10
2022-10-31T15:27:18.641Z,70.60
2022-10-31T15:29:53.488Z,72.50
2022-10-31T15:32:26.159Z,74.00
2022-10-31T15:34:54.261Z,74.50
2022-10-31T15:37:23.410Z,75.10
2022-10-31T15:39:51.010Z,76.20
2022-10-31T15:42:34.641Z,77.90
2022-10-31T15:45:26.519Z,79.70
2022-10-31T15:48:02.727Z,80.80
2022-10-31T15:50:41.640Z,82.50
2022-10-31T15:53:20.521Z,83.80
2022-10-31T15:56:01.852Z,84.80
2022-10-31T15:58:29.942Z,84.40
2022-10-31T16:01:21.090Z,85.60
2022-10-31T16:04:00.742Z,86.10
2022-10-31T16:06:27.955Z,87.00
2022-10-31T16:08:55.577Z,85.90
2022-10-31T16:11:24.822Z,85.20
2022-10-31T16:14:08.474Z,86.90
2022-10-31T16:16:45.400Z,86.90
2022-10-31T16:19:36.353Z,88.10
2022-10-31T16:22:11.066Z,88.90
2022-10-31T16:25:01.646Z,87.60
2022-10-31T16:27:32.227Z,87.40
2022-10-31T16:30:05.368Z,86.30
2022-10-31T16:32:36.811Z,85.90
2022-10-31T16:35:32.731Z,85.80
2022-10-31T16:37:59.709Z,85.70
2022-10-31T16:40:27.054Z,85.30
2022-10-31T16:42:54.521Z,85.80
2022-10-31T16:45:30.858Z,86.70
2022-10-31T16:48:07.331Z,86.60
2022-10-31T16:50:34.328Z,88.50
2022-10-31T16:53:13.493Z,88.10
2022-10-31T16:56:02.323Z,89.00
2022-10-31T16:58:32.369Z,89.70
2022-10-31T17:01:03.914Z,89.60
2022-10-31T17:03:31.461Z,89.40
2022-10-31T17:05:58.422Z,90.40
2022-10-31T17:08:26.133Z,90.10
2022-10-31T17:10:58.563Z,89.30
2022-10-31T17:13:31.272Z,88.90
2022-10-31T17:16:00.657Z,88.80
2022-10-31T17:18:28.184Z,89.70
2022-10-31T17:21:00.450Z,90.30
2022-10-31T17:23:28.804Z,89.80
2022-10-31T17:25:56.612Z,88.60
2022-10-31T17:28:23.658Z,88.30
2022-10-31T17:30:50.656Z,88.60
2022-10-31T17:33:18.165Z,89.60
2022-10-31T17:35:45.623Z,89.60
2022-10-31T17:38:12.959Z,88.90
2022-10-31T17:40:44.264Z,86.30
2022-10-31T17:43:11.890Z,84.00
2022-10-31T17:45:41.361Z,81.40
2022-10-31T17:48:11.621Z,80.30
2022-10-31T17:50:38.636Z,80.50
2022-10-31T17:53:05.614Z,81.20
2022-10-31T17:55:36.230Z,81.30
2022-10-31T17:58:04.810Z,82.10
2022-10-31T18:00:31.938Z,83.90
2022-10-31T18:02:59.313Z,84.10
2022-10-31T18:05:26.508Z,85.00
2022-10-31T18:07:53.456Z,85.60
2022-10-31T18:10:20.497Z,86.30
2022-10-31T18:12:48.895Z,86.80
2022-10-31T18:15:16.486Z,87.30
2022-10-31T18:17:43.893Z,89.20
2022-10-31T18:20:11.656Z,89.80
2022-10-31T18:22:38.573Z,90.50
2022-10-31T18:25:05.998Z,89.90
2022-10-31T18:27:32.943Z,89.80
2022-10-31T18:29:59.877Z,89.80
2022-10-31T18:32:26.937Z,89.40
2022-10-31T18:34:53.921Z,87.20
2022-10-31T18:37:21.188Z,86.90
2022-10-31T18:39:48.084Z,85.40
2022-10-31T18:42:15.075Z,85.30
2022-10-31T18:44:41.972Z,83.70
2022-10-31T18:47:09.001Z,82.80
2022-10-31T18:49:36.977Z,83.60
2022-10-31T18:52:05.178Z,83.70
2022-10-31T18:54:32.245Z,83.50
2022-10-31T18:56:59.444Z,82.70
2022-10-31T18:59:26.322Z,82.40
2022-10-31T19:01:53.406Z,82.90
2022-10-31T19:04:20.586Z,82.90
2022-10-31T19:06:47.525Z,84.20
2022-10-31T19:09:14.737Z,83.60
2022-10-31T19:11:42.060Z,83.70
2022-10-31T19:14:11.146Z,84.60
2022-10-31T19:16:38.064Z,85.00
2022-10-31T19:19:05.213Z,86.50
2022-10-31T19:21:32.592Z,87.20
2022-10-31T19:24:00.154Z,89.30
2022-10-31T19:26:28.109Z,89.40
2022-10-31T19:28:56.491Z,90.60
2022-10-31T19:31:23.754Z,90.40
2022-10-31T19:33:50.736Z,90.80
2022-10-31T19:36:19.145Z,90.50
2022-10-31T19:38:51.929Z,90.70
2022-10-31T19:41:24.673Z,90.40
2022-10-31T19:43:52.097Z,91.10
2022-10-31T19:46:33.813Z,92.80
2022-10-31T19:49:09.480Z,93.80
2022-10-31T19:51:36.776Z,94.50
2022-10-31T19:54:03.828Z,94.60
2022-10-31T19:56:31.264Z,96.40
2022-10-31T19:58:59.875Z,96.30
2022-10-31T20:01:26.971Z,97.90
2022-10-31T20:03:53.932Z,96.50
2022-10-31T20:06:47.270Z,96.00
2022-10-31T20:09:15.097Z,96.70
2022-10-31T20:11:44.273Z,97.40
2022-10-31T20:14:13.633Z,97.40
2022-10-31T20:16:40.612Z,98.20
2022-10-31T20:19:08.039Z,97.50
2022-10-31T20:21:39.755Z,98.10
2022-10-31T20:24:08.930Z,97.40
2022-10-31T20:26:36.701Z,96.10
2022-10-31T20:29:04.132Z,92.40
2022-10-31T20:31:34.045Z,91.40
2022-10-31T20:34:01.425Z,90.30
2022-10-31T20:36:31.441Z,89.70
2022-10-31T20:38:58.781Z,89.80
2022-10-31T20:41:26.356Z,89.60
2022-10-31T20:43:53.322Z,88.50
2022-10-31T20:46:24.798Z,89.10
2022-10-31T20:48:52.719Z,87.40
2022-10-31T20:51:26.451Z,88.40
2022-10-31T20:53:55.222Z,90.30
2022-10-31T20:56:24.554Z,90.10
2022-10-31T20:58:52.226Z,88.80
2022-10-31T21:01:22.766Z,89.70
2022-10-31T21:03:50.634Z,90.00
2022-10-31T21:06:18.700Z,88.40
2022-10-31T21:08:46.117Z,86.30
2022-10-31T21:11:16.572Z,83.70
2022-10-31T21:13:45.282Z,81.00
2022-10-31T21:16:14.593Z,79.10
2022-10-31T21:18:43.205Z,75.90
2022-10-31T21:21:15.616Z,71.40
2022-10-31T21:23:43.193Z,69.40
2022-10-31T21:26:13.621Z,67.20
2022-10-31T21:28:41.036Z,66.90
2022-10-31T21:31:13.537Z,65.50
2022-10-31T21:33:41.276Z,64.50
2022-10-31T21:36:08.868Z,62.30
2022-10-31T21:38:36.584Z,59.90
2022-10-31T21:41:08.624Z,58.70
2022-10-31T21:43:37.655Z,57.80
2022-10-31T21:46:10.168Z,57.70
2022-10-31T21:48:42.344Z,57.90
2022-10-31T21:51:14.695Z,56.90
2022-10-31T21:54:00.566Z,55.60
2022-10-31T21:56:28.334Z,56.40
2022-10-31T21:58:56.265Z,57.80
2022-10-31T22:01:24.977Z,58.50
2022-10-31T22:03:52.286Z,58.00
2022-10-31T22:06:19.330Z,58.40
2022-10-31T22:08:46.503Z,58.50
2022-10-31T22:11:16.832Z,59.70
2022-10-31T22:13:45.487Z,61.40
2022-10-31T22:16:15.081Z,61.20
2022-10-31T22:18:42.760Z,61.70
2022-10-31T22:21:16.883Z,62.80
2022-10-31T22:23:44.087Z,66.80
2022-10-31T22:26:16.341Z,67.70
2022-10-31T22:28:48.973Z,68.60
2022-10-31T22:31:20.480Z,69.30
2022-10-31T22:33:47.781Z,70.20
2022-10-31T22:36:18.337Z,69.40
2022-10-31T22:38:46.574Z,70.80
2022-10-31T22:41:19.707Z,72.20
2022-10-31T22:43:47.143Z,73.00
2022-10-31T22:46:20.016Z,74.00
2022-10-31T22:48:52.432Z,74.50
2022-10-31T22:51:33.628Z,75.70
2022-10-31T22:54:00.950Z,74.00
2022-10-31T22:56:31.235Z,73.30
2022-10-31T22:58:59.188Z,73.30
2022-10-31T23:01:29.287Z,73.50
2022-10-31T23:03:56.503Z,72.50
2022-10-31T23:06:25.822Z,72.80
2022-10-31T23:08:53.616Z,73.60
2022-10-31T23:11:27.247Z,73.90
2022-10-31T23:14:09.114Z,73.10
2022-10-31T23:16:56.983Z,72.90
2022-10-31T23:19:29.511Z,73.00
2022-10-31T23:22:02.479Z,72.40
2022-10-31T23:24:39.416Z,71.40
2022-10-31T23:27:21.245Z,71.40
2022-10-31T23:29:53.261Z,71.00
2022-10-31T23:32:35.377Z,71.40
2022-10-31T23:35:10.318Z,72.70
2022-10-31T23:37:38.756Z,74.00
2022-10-31T23:40:08.756Z,74.00
2022-10-31T23:42:36.032Z,74.20
2022-10-31T23:45:05.875Z,74.00
2022-10-31T23:47:32.685Z,70.90
2022-10-31T23:49:59.589Z,68.50
2022-10-31T23:52:26.535Z,64.40
2022-10-31T23:54:53.412Z,61.80
2022-10-31T23:57:20.350Z,59.90
2022-10-31T23:59:48.067Z,57.10
